Time;durP1;ratioP1;P1;durP2;ratioP2;P2;SDS_P1;SDS_P2;PMS_P1;PMS_P2;Temp;Humidity;BMP_temperature;BMP_pressure;BME280_temperature;BME280_humidity;BME280_pressure;Samples;Min_cycle;Max_cycle;Signal;HPM_P1;HPM_P2
2021/03/03 00:00:38;;;;;;;13.38;6.60;;;;;;;4.34;75.48;101924.78;5009482;28;20048;-69
2021/03/03 00:03:03;;;;;;;14.30;8.85;;;;;;;4.18;74.44;101923.84;5008891;28;20037;-69
2021/03/03 00:05:29;;;;;;;16.55;9.45;;;;;;;3.95;75.27;101917.13;5007541;28;20038;-69
2021/03/03 00:07:54;;;;;;;16.05;9.07;;;;;;;3.76;75.97;101931.06;5009016;28;20117;-69
2021/03/03 00:10:19;;;;;;;13.63;7.85;;;;;;;3.75;75.93;101926.78;5009135;28;20497;-69
2021/03/03 00:12:45;;;;;;;17.27;8.20;;;;;;;3.88;74.23;101924.41;5009140;28;20383;-69
2021/03/03 00:15:10;;;;;;;10.30;6.00;;;;;;;3.86;75.43;101921.00;5008995;28;20053;-69
2021/03/03 00:17:35;;;;;;;14.75;8.88;;;;;;;3.87;76.13;101920.09;5008923;28;20026;-69
2021/03/03 00:20:01;;;;;;;15.70;8.80;;;;;;;3.82;76.12;101916.88;5009228;28;20434;-71
2021/03/03 00:22:26;;;;;;;12.13;7.22;;;;;;;3.79;75.80;101917.00;5012669;28;20518;-69
2021/03/03 00:24:52;;;;;;;14.85;8.60;;;;;;;3.75;76.88;101916.31;5012943;28;20030;-69
2021/03/03 00:27:17;;;;;;;18.02;10.80;;;;;;;3.85;78.37;101914.09;5012853;28;20160;-69
2021/03/03 00:29:42;;;;;;;15.40;9.50;;;;;;;4.04;76.26;101914.06;5012340;28;20037;-69
2021/03/03 00:32:08;;;;;;;14.48;8.20;;;;;;;4.21;76.33;101914.06;5013089;28;20042;-69
2021/03/03 00:34:33;;;;;;;21.35;9.82;;;;;;;4.39;75.91;101916.69;5014107;28;20046;-69
2021/03/03 00:36:58;;;;;;;14.02;8.68;;;;;;;4.47;77.07;101910.13;5012511;28;20034;-69
2021/03/03 00:39:26;;;;;;;16.73;9.45;;;;;;;4.57;75.82;101913.13;5011013;28;20399;-69
2021/03/03 00:41:52;;;;;;;13.25;7.05;;;;;;;4.60;75.20;101909.47;5011396;28;20034;-69
2021/03/03 00:44:17;;;;;;;10.52;6.63;;;;;;;4.58;76.02;101913.97;5012028;28;20034;-69
2021/03/03 00:46:42;;;;;;;14.30;8.10;;;;;;;4.60;74.81;101917.34;5011640;28;20057;-69
2021/03/03 00:49:07;;;;;;;16.92;9.82;;;;;;;4.62;75.53;101910.25;5012386;28;20257;-69
2021/03/03 00:51:33;;;;;;;15.48;8.82;;;;;;;4.60;74.82;101909.47;5011029;28;20044;-69
2021/03/03 00:53:58;;;;;;;11.43;7.03;;;;;;;4.56;74.54;101908.81;5012579;28;20034;-68
2021/03/03 00:56:23;;;;;;;10.40;6.60;;;;;;;4.53;74.35;101908.97;5011831;28;20044;-68
2021/03/03 00:58:49;;;;;;;10.05;6.07;;;;;;;4.44;76.57;101905.03;5009815;28;20185;-69
2021/03/03 01:01:14;;;;;;;10.20;5.97;;;;;;;4.42;74.78;101900.81;5012046;28;20109;-68
2021/03/03 01:03:39;;;;;;;13.02;6.82;;;;;;;4.38;74.91;101902.72;5011100;28;20437;-69
2021/03/03 01:06:05;;;;;;;9.13;5.68;;;;;;;4.30;75.80;101904.91;5011855;28;20118;-72
2021/03/03 01:08:30;;;;;;;10.93;6.32;;;;;;;4.21;77.67;101902.75;5012198;28;20065;-68
2021/03/03 01:10:55;;;;;;;10.25;5.75;;;;;;;4.18;75.48;101900.28;5011996;28;20029;-69
2021/03/03 01:13:21;;;;;;;11.35;6.97;;;;;;;4.14;74.83;101911.81;5012128;28;20026;-68
2021/03/03 01:15:47;;;;;;;13.55;7.55;;;;;;;4.05;74.28;101905.25;5011481;28;20492;-69
2021/03/03 01:18:12;;;;;;;19.92;11.18;;;;;;;4.01;74.35;101895.88;5010586;28;20122;-69
2021/03/03 01:20:37;;;;;;;14.05;7.68;;;;;;;3.85;76.60;101910.63;5010788;28;20074;-68
2021/03/03 01:23:06;;;;;;;13.82;8.18;;;;;;;3.77;75.64;101918.88;5012266;28;20148;-69
2021/03/03 01:25:31;;;;;;;11.98;7.30;;;;;;;3.64;75.63;101920.34;5011674;28;20038;-69
2021/03/03 01:27:57;;;;;;;16.98;10.00;;;;;;;3.64;75.15;101905.50;5005561;28;20034;-69
2021/03/03 01:30:22;;;;;;;14.25;7.60;;;;;;;3.56;75.77;101907.66;5011156;28;20129;-69
2021/03/03 01:32:48;;;;;;;11.32;6.43;;;;;;;3.46;76.95;101906.41;5013036;28;20040;-68
2021/03/03 01:35:14;;;;;;;11.40;7.32;;;;;;;3.39;76.73;101901.44;5011723;28;20038;-69
2021/03/03 01:37:39;;;;;;;11.43;7.22;;;;;;;3.31;79.57;101906.19;5011603;28;20033;-68
2021/03/03 01:40:06;;;;;;;13.50;7.50;;;;;;;3.29;76.89;101904.53;5011600;28;20060;-68
2021/03/03 01:42:31;;;;;;;11.85;7.43;;;;;;;3.22;79.57;101903.13;5012267;28;20030;-68
2021/03/03 01:44:56;;;;;;;10.48;6.20;;;;;;;3.23;78.10;101897.84;5012110;28;20045;-68
2021/03/03 01:47:22;;;;;;;13.60;7.65;;;;;;;3.21;77.62;101904.06;5013413;28;20454;-69
2021/03/03 01:49:47;;;;;;;10.95;6.50;;;;;;;3.15;78.79;101894.75;5011749;28;20112;-69
2021/03/03 01:52:14;;;;;;;16.33;9.20;;;;;;;3.02;78.71;101896.19;5010634;28;20120;-68
2021/03/03 01:54:40;;;;;;;16.85;9.52;;;;;;;2.91;79.60;101889.69;5011547;28;20053;-69
2021/03/03 01:57:06;;;;;;;16.40;9.13;;;;;;;2.86;79.04;101899.50;5010514;28;20446;-68
2021/03/03 01:59:32;;;;;;;15.93;9.05;;;;;;;2.92;82.08;101898.38;5011371;28;20034;-69
2021/03/03 02:01:57;;;;;;;15.88;9.27;;;;;;;2.98;80.14;101893.75;5011012;28;20072;-68
2021/03/03 02:04:23;;;;;;;14.55;9.13;;;;;;;3.09;82.13;101895.00;5010533;28;20042;-69
2021/03/03 02:07:18;;;;;;;15.82;8.85;;;;;;;3.22;81.83;101887.44;5009842;28;20049;-69
2021/03/03 02:09:48;;;;;;;11.75;6.93;;;;;;;3.33;80.24;101887.81;4997767;28;20042;-69
2021/03/03 02:12:35;;;;;;;19.02;9.68;;;;;;;3.46;78.71;101893.31;5006421;28;20034;-68
2021/03/03 02:15:04;;;;;;;22.73;11.73;;;;;;;3.52;77.42;101888.63;5007821;28;20446;-68
2021/03/03 02:17:30;;;;;;;20.38;11.35;;;;;;;3.42;78.02;101887.38;5010828;28;20530;-68
2021/03/03 02:20:01;;;;;;;22.17;12.18;;;;;;;3.37;77.57;101886.75;5010896;28;20042;-68
2021/03/03 02:22:42;;;;;;;13.85;7.53;;;;;;;3.21;77.81;101877.91;5009715;28;20034;-68
2021/03/03 02:25:29;;;;;;;10.88;5.90;;;;;;;3.17;77.44;101882.41;5009253;28;20038;-69
2021/03/03 02:27:59;;;;;;;19.48;10.23;;;;;;;3.20;77.27;101879.69;5007687;28;20058;-68
2021/03/03 02:30:26;;;;;;;21.58;10.90;;;;;;;3.13;77.29;101884.34;5010154;28;20060;-68
2021/03/03 02:32:52;;;;;;;21.27;11.95;;;;;;;3.13;77.41;101879.13;5013673;28;20030;-69
2021/03/03 02:35:18;;;;;;;21.13;11.85;;;;;;;3.15;77.88;101879.06;5010091;28;20172;-68
2021/03/03 02:37:43;;;;;;;14.90;8.43;;;;;;;3.06;78.76;101867.25;5002190;28;20493;-69
2021/03/03 02:40:11;;;;;;;13.80;8.48;;;;;;;3.04;80.32;101863.84;5009898;28;20037;-70
2021/03/03 02:42:37;;;;;;;15.38;9.48;;;;;;;2.93;79.26;101858.25;5009921;28;20073;-69
2021/03/03 02:45:14;;;;;;;16.63;9.80;;;;;;;2.78;79.48;101859.81;5009340;28;20084;-68
2021/03/03 02:47:40;;;;;;;13.75;7.75;;;;;;;2.72;80.00;101853.09;5009779;28;20053;-68
2021/03/03 02:50:08;;;;;;;14.30;7.82;;;;;;;2.71;80.56;101850.56;5009139;28;20068;-69
2021/03/03 02:52:54;;;;;;;10.55;6.43;;;;;;;2.73;81.84;101849.56;5010467;28;20441;-68
2021/03/03 02:55:25;;;;;;;14.80;7.80;;;;;;;2.82;79.18;101845.69;5009904;28;20034;-68
2021/03/03 02:57:55;;;;;;;12.95;7.45;;;;;;;2.86;80.98;101841.16;5008333;28;20033;-69
2021/03/03 03:00:25;;;;;;;11.82;6.53;;;;;;;2.87;78.72;101843.72;5008642;28;20101;-68
2021/03/03 03:03:14;;;;;;;11.30;6.38;;;;;;;2.82;78.66;101845.69;5010351;28;20030;-68
2021/03/03 03:05:43;;;;;;;12.65;7.60;;;;;;;2.73;78.94;101849.56;5009887;28;20128;-68
2021/03/03 03:08:13;;;;;;;13.93;8.05;;;;;;;2.67;80.44;101847.25;5009354;28;20042;-69
2021/03/03 03:10:39;;;;;;;12.25;6.93;;;;;;;2.66;81.75;101850.75;5009356;28;20128;-68
2021/03/03 03:13:09;;;;;;;16.30;8.73;;;;;;;2.77;79.18;101855.50;5009754;28;20041;-69
2021/03/03 03:15:35;;;;;;;18.65;9.52;;;;;;;2.84;78.65;101856.09;5009428;28;20527;-69
2021/03/03 03:18:05;;;;;;;24.63;11.93;;;;;;;2.92;78.16;101865.25;5007977;28;20030;-69
2021/03/03 03:20:34;;;;;;;22.35;11.13;;;;;;;2.87;78.16;101861.16;5009241;28;20034;-68
2021/03/03 03:23:06;;;;;;;27.42;13.23;;;;;;;2.84;78.83;101867.38;5009307;28;20403;-68
2021/03/03 03:25:33;;;;;;;19.60;10.88;;;;;;;2.76;79.32;101872.09;5009072;28;20030;-68
2021/03/03 03:27:59;;;;;;;22.30;12.02;;;;;;;2.70;79.76;101873.22;5009250;28;20036;-69
2021/03/03 03:30:27;;;;;;;17.85;10.23;;;;;;;2.61;80.06;101867.56;5008774;28;20540;-68
2021/03/03 03:32:55;;;;;;;19.20;10.50;;;;;;;2.64;79.35;101877.84;5008635;28;20030;-69
2021/03/03 03:35:20;;;;;;;19.55;10.00;;;;;;;2.63;79.33;101878.78;5006412;28;20060;-68
2021/03/03 03:37:46;;;;;;;19.33;10.60;;;;;;;2.61;79.12;101880.59;5009093;28;20022;-69
2021/03/03 03:40:11;;;;;;;16.65;9.07;;;;;;;2.60;78.96;101884.13;5008733;28;20049;-69
2021/03/03 03:42:40;;;;;;;22.80;10.90;;;;;;;2.62;78.75;101885.78;5008421;28;20041;-68
2021/03/03 03:45:06;;;;;;;22.58;11.85;;;;;;;2.62;78.92;101874.47;5008997;28;20038;-68
2021/03/03 03:47:32;;;;;;;17.08;9.93;;;;;;;2.55;78.99;101886.94;5009099;28;20077;-69
2021/03/03 03:50:01;;;;;;;11.90;7.32;;;;;;;2.55;79.90;101886.94;5008955;28;20041;-69
2021/03/03 03:52:27;;;;;;;14.85;8.23;;;;;;;2.44;80.14;101878.72;5008009;28;20041;-68
2021/03/03 03:54:53;;;;;;;14.18;8.98;;;;;;;2.31;80.47;101879.25;5008491;28;20042;-68
2021/03/03 03:57:19;;;;;;;14.88;8.57;;;;;;;2.38;79.72;101873.75;5008658;28;20030;-69
2021/03/03 03:59:45;;;;;;;11.00;6.57;;;;;;;2.42;79.67;101878.78;5008569;28;20034;-69
2021/03/03 04:02:11;;;;;;;8.70;5.15;;;;;;;2.44;80.43;101884.78;5006927;28;20490;-69
2021/03/03 04:04:36;;;;;;;11.55;6.38;;;;;;;2.39;80.03;101889.38;5009016;28;20038;-69
2021/03/03 04:07:03;;;;;;;13.43;7.88;;;;;;;2.28;79.52;101897.63;5008378;28;20395;-68
2021/03/03 04:09:29;;;;;;;13.82;8.15;;;;;;;2.18;79.31;101898.09;5009190;28;20053;-68
2021/03/03 04:11:55;;;;;;;16.33;10.60;;;;;;;2.27;79.48;101898.56;5008862;28;20034;-68
2021/03/03 04:14:20;;;;;;;15.77;9.07;;;;;;;2.30;79.75;101895.81;5008071;28;20057;-68
2021/03/03 04:16:45;;;;;;;12.13;6.70;;;;;;;2.33;80.35;101890.47;5008378;28;20107;-69
2021/03/03 04:19:10;;;;;;;12.20;7.22;;;;;;;2.34;82.76;101886.09;5009023;28;20034;-68
2021/03/03 04:21:36;;;;;;;16.67;8.55;;;;;;;2.46;79.91;101892.56;5008296;28;20060;-69
2021/03/03 04:24:01;;;;;;;13.85;7.35;;;;;;;2.48;80.87;101893.31;5009010;28;20395;-70
2021/03/03 04:26:27;;;;;;;12.63;7.70;;;;;;;2.42;79.54;101891.00;5008689;28;20521;-68
2021/03/03 04:28:52;;;;;;;13.50;7.22;;;;;;;2.39;82.46;101886.75;5008820;28;20081;-69
2021/03/03 04:31:17;;;;;;;20.67;11.43;;;;;;;2.51;79.32;101882.78;5009070;28;20129;-68
2021/03/03 04:33:43;;;;;;;21.02;12.23;;;;;;;2.54;79.65;101878.25;5009504;28;20030;-69
2021/03/03 04:36:08;;;;;;;14.52;8.50;;;;;;;2.47;80.83;101887.25;5007751;28;20041;-69
2021/03/03 04:38:33;;;;;;;17.20;9.70;;;;;;;2.31;80.90;101901.88;5008938;28;20046;-69
2021/03/03 04:40:59;;;;;;;13.77;8.90;;;;;;;2.17;81.34;101899.88;5008973;28;20272;-68
2021/03/03 04:43:24;;;;;;;14.75;7.38;;;;;;;2.15;80.92;101903.47;5006921;28;20037;-68
2021/03/03 04:45:49;;;;;;;19.45;11.05;;;;;;;2.29;80.24;101893.28;5008720;28;20045;-68
2021/03/03 04:48:14;;;;;;;19.88;10.60;;;;;;;2.34;80.23;101894.78;5008293;28;20045;-69
2021/03/03 04:50:40;;;;;;;16.35;9.35;;;;;;;2.39;80.52;101894.59;5008326;28;20034;-68
2021/03/03 04:53:05;;;;;;;16.77;9.00;;;;;;;2.47;80.19;101889.88;5008011;28;20446;-69
2021/03/03 04:55:31;;;;;;;18.08;10.75;;;;;;;2.52;80.37;101892.28;5008433;28;20037;-68
2021/03/03 04:57:56;;;;;;;18.90;9.82;;;;;;;2.54;81.00;101887.84;5008247;28;20080;-68
2021/03/03 05:00:21;;;;;;;15.82;8.60;;;;;;;2.58;81.02;101888.59;5007825;28;20153;-69
2021/03/03 05:02:47;;;;;;;12.10;7.60;;;;;;;2.60;80.36;101894.56;5008804;28;20375;-68
2021/03/03 05:05:13;;;;;;;11.57;7.43;;;;;;;2.60;82.39;101894.56;5007299;28;20038;-68
2021/03/03 05:07:38;;;;;;;13.73;8.15;;;;;;;2.53;80.49;101894.00;5009905;28;20049;-69
2021/03/03 05:10:04;;;;;;;17.63;8.15;;;;;;;2.41;80.58;101889.28;5011917;28;20048;-69
2021/03/03 05:12:30;;;;;;;12.25;7.05;;;;;;;2.34;80.68;101894.78;5011516;28;20033;-68
2021/03/03 05:14:55;;;;;;;11.40;6.57;;;;;;;2.31;80.97;101894.94;5012331;28;20033;-68
2021/03/03 05:17:21;;;;;;;13.93;8.23;;;;;;;2.26;80.45;101894.25;5011404;28;20080;-69
2021/03/03 05:19:46;;;;;;;13.13;7.05;;;;;;;2.30;82.04;101888.00;5012142;28;20517;-68
2021/03/03 05:22:12;;;;;;;12.35;7.13;;;;;;;2.30;81.37;101885.38;5011088;28;20496;-69
2021/03/03 05:24:37;;;;;;;13.82;8.07;;;;;;;2.24;80.81;101890.00;5011773;28;20699;-68
2021/03/03 05:27:02;;;;;;;15.40;9.05;;;;;;;2.32;80.54;101882.72;5011794;28;20030;-68
2021/03/03 05:29:28;;;;;;;13.70;8.48;;;;;;;2.30;83.11;101888.00;5011572;28;20093;-68
2021/03/03 05:31:53;;;;;;;13.90;7.90;;;;;;;2.25;80.54;101884.72;5012083;28;20060;-69
2021/03/03 05:34:18;;;;;;;19.73;9.43;;;;;;;2.32;80.28;101886.16;5010934;28;20065;-68
2021/03/03 05:36:44;;;;;;;14.10;7.85;;;;;;;2.32;83.65;101893.16;5010926;28;20040;-69
2021/03/03 05:39:09;;;;;;;15.95;8.50;;;;;;;2.38;83.40;101886.81;5011699;28;20030;-68
2021/03/03 05:41:34;;;;;;;12.38;6.65;;;;;;;2.43;81.56;101887.47;5011369;28;20088;-68
2021/03/03 05:44:00;;;;;;;9.77;5.53;;;;;;;2.45;81.46;101888.25;5011815;28;20061;-68
2021/03/03 05:46:26;;;;;;;14.93;8.30;;;;;;;2.48;80.21;101893.31;5010597;28;20523;-68
2021/03/03 05:49:01;;;;;;;18.30;9.30;;;;;;;2.47;80.96;101896.88;5011346;28;20034;-68
2021/03/03 05:51:28;;;;;;;19.85;10.68;;;;;;;2.45;80.17;101893.47;5009099;28;20049;-68
2021/03/03 05:53:53;;;;;;;22.00;11.65;;;;;;;2.48;80.37;101888.97;5011466;28;20038;-69
2021/03/03 05:56:22;;;;;;;24.60;12.98;;;;;;;2.50;80.49;101881.94;5009205;28;20072;-68
2021/03/03 05:58:48;;;;;;;23.98;13.40;;;;;;;2.54;80.66;101886.09;5003859;28;20105;-69
2021/03/03 06:01:14;;;;;;;17.05;9.05;;;;;;;2.48;81.44;101898.56;5011204;28;20133;-68
2021/03/03 06:03:40;;;;;;;11.75;6.97;;;;;;;2.49;81.33;101895.88;5010614;28;20038;-68
2021/03/03 06:06:06;;;;;;;15.30;8.52;;;;;;;2.57;80.82;101892.94;5006787;28;20044;-70
2021/03/03 06:08:31;;;;;;;20.13;10.88;;;;;;;2.59;80.67;101880.66;5010333;28;20096;-69
2021/03/03 06:11:02;;;;;;;12.70;8.05;;;;;;;2.57;82.64;101886.88;5011051;28;20030;-68
2021/03/03 06:13:27;;;;;;;14.02;7.55;;;;;;;2.52;80.69;101887.06;5011384;28;20026;-69
2021/03/03 06:15:53;;;;;;;10.05;5.57;;;;;;;2.48;80.66;101882.88;5010573;28;20084;-68
2021/03/03 06:18:20;;;;;;;10.05;5.60;;;;;;;2.44;80.89;101887.41;5009443;28;20394;-68
2021/03/03 06:20:47;;;;;;;13.40;8.25;;;;;;;2.38;80.77;101884.19;5009601;28;20510;-69
2021/03/03 06:23:28;;;;;;;15.90;9.88;;;;;;;2.23;82.25;101893.53;5010584;28;20033;-69
2021/03/03 06:25:56;;;;;;;15.90;8.88;;;;;;;2.16;82.18;101894.72;5010491;28;20030;-69
2021/03/03 06:28:41;;;;;;;17.63;9.43;;;;;;;2.14;82.17;101889.53;5009720;28;20049;-69
2021/03/03 06:31:24;;;;;;;15.43;9.00;;;;;;;2.15;82.29;101891.25;5010600;28;20430;-68
2021/03/03 06:33:51;;;;;;;10.43;6.22;;;;;;;2.23;82.06;101893.53;5007214;28;20046;-68
2021/03/03 06:36:27;;;;;;;11.13;6.15;;;;;;;2.29;81.33;101888.91;5010034;28;20033;-68
2021/03/03 06:38:53;;;;;;;8.10;4.82;;;;;;;2.34;80.90;101899.16;5000005;28;20034;-69
2021/03/03 06:41:19;;;;;;;12.77;7.40;;;;;;;2.36;80.98;101899.06;5009306;28;20532;-69
2021/03/03 06:43:55;;;;;;;17.05;9.07;;;;;;;2.35;82.54;101898.25;5008969;28;20033;-68
2021/03/03 06:46:21;;;;;;;12.80;7.78;;;;;;;2.46;82.51;101903.00;5012207;28;20068;-69
2021/03/03 06:48:46;;;;;;;11.73;7.28;;;;;;;2.52;81.52;101900.97;5010043;28;20423;-68
2021/03/03 06:51:32;;;;;;;13.52;8.43;;;;;;;2.65;81.36;101890.00;5010421;28;20045;-68
2021/03/03 06:54:02;;;;;;;17.00;9.23;;;;;;;2.74;82.47;101897.41;5008319;28;20041;-69
2021/03/03 06:56:31;;;;;;;16.23;10.00;;;;;;;2.85;81.02;101908.25;5001002;28;20061;-68
2021/03/03 06:59:11;;;;;;;19.38;12.38;;;;;;;2.81;81.64;101911.06;5004009;28;20108;-69
2021/03/03 07:01:37;;;;;;;17.55;10.80;;;;;;;2.82;81.23;101915.38;5003198;28;20042;-68
2021/03/03 07:04:03;;;;;;;32.53;18.23;;;;;;;3.01;80.30;101912.81;5008359;28;20502;-68
2021/03/03 07:06:32;;;;;;;22.13;12.88;;;;;;;3.10;80.41;101902.78;5004645;28;20034;-68
2021/03/03 07:09:01;;;;;;;16.35;10.55;;;;;;;3.17;81.89;101903.34;5010382;28;20034;-69
2021/03/03 07:11:29;;;;;;;17.17;10.05;;;;;;;3.26;81.78;101902.06;5010753;28;20034;-69
2021/03/03 07:13:55;;;;;;;18.55;10.50;;;;;;;3.28;80.62;101911.53;5010475;28;20037;-69
2021/03/03 07:16:21;;;;;;;13.25;7.70;;;;;;;3.34;81.20;101910.44;5009649;28;20179;-68
2021/03/03 07:18:46;;;;;;;17.75;10.43;;;;;;;3.51;79.87;101915.72;5009441;28;20053;-69
2021/03/03 07:21:11;;;;;;;22.23;13.05;;;;;;;3.63;79.49;101914.28;5008954;28;20518;-68
2021/03/03 07:23:45;;;;;;;24.38;13.75;;;;;;;3.68;79.31;101907.06;5004860;28;20029;-68
2021/03/03 07:26:12;;;;;;;27.70;13.90;;;;;;;3.70;79.68;101901.78;5008324;28;20035;-71
2021/03/03 07:28:38;;;;;;;20.30;10.38;;;;;;;3.69;80.30;101907.91;5009971;28;20125;-70
2021/03/03 07:31:03;;;;;;;15.88;8.93;;;;;;;3.78;79.78;101910.91;5004064;28;20157;-70
2021/03/03 07:33:29;;;;;;;23.33;12.95;;;;;;;3.94;79.05;101908.41;5007813;28;20041;-70
2021/03/03 07:35:58;;;;;;;14.60;8.35;;;;;;;3.96;79.43;101911.81;5009631;28;20546;-70
2021/03/03 07:38:29;;;;;;;15.73;8.55;;;;;;;4.11;79.61;101904.97;5008282;28;20153;-70
2021/03/03 07:40:55;;;;;;;23.58;14.15;;;;;;;4.34;78.23;101898.59;5009875;28;20503;-70
2021/03/03 07:43:24;;;;;;;22.42;12.82;;;;;;;4.35;78.45;101895.03;5009376;28;20088;-70
2021/03/03 07:45:50;;;;;;;17.20;10.20;;;;;;;4.41;78.57;101886.88;5009432;28;20049;-70
2021/03/03 07:48:16;;;;;;;22.70;11.43;;;;;;;4.55;78.21;101888.75;5010507;28;20046;-70
2021/03/03 07:50:42;;;;;;;14.35;8.63;;;;;;;4.65;78.37;101881.31;5009622;28;20111;-70
2021/03/03 07:53:08;;;;;;;10.68;6.82;;;;;;;4.82;78.00;101885.66;5008845;28;20518;-70
2021/03/03 07:55:34;;;;;;;20.00;11.18;;;;;;;4.85;79.19;101894.19;5009901;28;20530;-70
2021/03/03 07:58:00;;;;;;;21.52;11.65;;;;;;;4.94;78.82;101900.72;5008717;28;20034;-70
2021/03/03 08:00:27;;;;;;;18.77;11.15;;;;;;;5.10;78.47;101904.22;5008321;28;20108;-70
2021/03/03 08:02:54;;;;;;;14.90;8.98;;;;;;;5.35;78.05;101912.53;5009257;28;20113;-70
2021/03/03 08:05:34;;;;;;;22.77;12.23;;;;;;;5.61;76.39;101906.69;5009636;28;20411;-70
2021/03/03 08:08:33;;;;;;;25.05;13.68;;;;;;;5.91;76.24;101901.50;5008922;28;20034;-70
2021/03/03 08:10:58;;;;;;;27.92;14.50;;;;;;;5.98;74.80;101902.00;5003300;28;20099;-70
2021/03/03 08:13:29;;;;;;;25.35;14.27;;;;;;;6.08;74.56;101912.84;5009643;28;20033;-70
2021/03/03 08:15:59;;;;;;;24.20;13.40;;;;;;;6.15;74.61;101919.44;5007783;28;20030;-69
2021/03/03 08:18:35;;;;;;;25.95;14.60;;;;;;;6.24;73.55;101913.63;5006730;28;20049;-70
2021/03/03 08:21:21;;;;;;;20.92;12.65;;;;;;;6.33;73.61;101912.25;5007825;28;20026;-69
2021/03/03 08:23:50;;;;;;;17.98;10.43;;;;;;;6.55;73.62;101910.06;5009098;28;20041;-70
2021/03/03 08:26:16;;;;;;;21.20;13.25;;;;;;;6.75;72.83;101910.63;5008627;28;20041;-70
2021/03/03 08:29:10;;;;;;;23.02;13.18;;;;;;;6.84;72.39;101903.94;5008784;28;20038;-70
2021/03/03 08:31:39;;;;;;;21.77;13.18;;;;;;;6.94;71.89;101905.94;5008830;28;20026;-70
2021/03/03 08:34:06;;;;;;;20.92;12.05;;;;;;;7.08;71.74;101902.47;5011777;28;20108;-70
2021/03/03 08:36:32;;;;;;;19.35;11.77;;;;;;;7.22;71.43;101914.72;5008520;28;20049;-70
2021/03/03 08:38:57;;;;;;;20.45;13.25;;;;;;;7.30;69.92;101914.28;5008814;28;20042;-70
2021/03/03 08:41:23;;;;;;;19.33;12.07;;;;;;;7.15;71.02;101911.66;5008021;28;20030;-70
2021/03/03 08:44:01;;;;;;;13.77;8.60;;;;;;;7.31;71.31;101911.53;5013203;28;20284;-70
2021/03/03 08:46:29;;;;;;;14.40;9.55;;;;;;;7.50;70.71;101907.75;5010818;28;20765;-70
2021/03/03 08:48:55;;;;;;;18.73;11.52;;;;;;;7.60;70.60;101914.97;5012807;28;20046;-70
2021/03/03 08:51:28;;;;;;;15.40;10.17;;;;;;;7.78;70.39;101914.72;5011209;28;20041;-70
2021/03/03 08:53:55;;;;;;;21.65;13.00;;;;;;;7.75;69.50;101913.13;5012657;28;20277;-70
2021/03/03 08:56:39;;;;;;;27.98;14.50;;;;;;;8.02;69.44;101910.47;5012264;28;20112;-70
2021/03/03 08:59:23;;;;;;;21.13;14.13;;;;;;;8.20;68.91;101908.41;5012820;28;20046;-70
2021/03/03 09:02:17;;;;;;;21.45;13.40;;;;;;;8.17;67.74;101898.06;5011613;28;20034;-70
2021/03/03 09:04:48;;;;;;;22.80;13.48;;;;;;;8.29;67.42;101891.13;5012519;28;20037;-70
2021/03/03 09:07:14;;;;;;;;;;;;;;;8.22;67.11;101892.47;5011175;28;20033;-70
2021/03/03 09:09:42;;;;;;;17.23;10.75;;;;;;;8.35;67.58;101892.53;5012219;28;19925;-70
2021/03/03 09:12:12;;;;;;;27.35;13.43;;;;;;;8.43;67.49;101893.69;5011888;28;20033;-69
2021/03/03 09:14:40;;;;;;;23.77;14.57;;;;;;;8.41;66.52;101898.22;5012537;28;20358;-70
2021/03/03 09:17:07;;;;;;;23.58;14.30;;;;;;;8.28;65.92;101897.34;5011831;28;20049;-70
2021/03/03 09:19:34;;;;;;;27.33;16.83;;;;;;;8.29;66.63;101891.13;5010571;28;20121;-70
2021/03/03 09:22:01;;;;;;;25.35;14.30;;;;;;;8.27;67.10;101888.63;5012115;28;20057;-70
2021/03/03 09:24:29;;;;;;;26.40;16.17;;;;;;;8.31;66.75;101889.22;5011945;28;20490;-70
2021/03/03 09:27:06;;;;;;;24.40;14.68;;;;;;;8.27;67.23;101879.84;5010743;28;20038;-70
2021/03/03 09:29:35;;;;;;;23.73;15.40;;;;;;;8.27;66.44;101880.72;5011933;28;20029;-70
2021/03/03 09:32:06;;;;;;;22.52;14.10;;;;;;;8.35;66.76;101879.34;5012236;28;20108;-70
2021/03/03 09:34:34;;;;;;;22.35;12.90;;;;;;;8.37;66.61;101877.47;5012913;28;21383;-70
2021/03/03 09:37:01;;;;;;;25.08;14.35;;;;;;;8.38;66.51;101877.34;5011333;28;20152;-70
2021/03/03 09:39:27;;;;;;;27.15;16.90;;;;;;;8.42;66.34;101883.28;5012128;28;20380;-70
2021/03/03 09:42:00;;;;;;;25.40;14.98;;;;;;;8.45;66.59;101880.44;5011919;28;20724;-70
2021/03/03 09:44:27;;;;;;;21.38;12.45;;;;;;;8.38;66.92;101879.13;5011587;28;20037;-70
2021/03/03 09:46:54;;;;;;;26.95;16.08;;;;;;;8.52;66.80;101875.59;5013324;28;20541;-70
2021/03/03 09:49:30;;;;;;;26.80;16.13;;;;;;;8.61;66.58;101867.88;5010092;28;20038;-70
2021/03/03 09:51:57;;;;;;;18.42;12.30;;;;;;;8.67;66.73;101870.09;5011342;28;20033;-70
2021/03/03 09:54:26;;;;;;;22.70;12.95;;;;;;;8.66;66.79;101867.56;5011468;28;20026;-72
2021/03/03 09:56:52;;;;;;;20.77;13.57;;;;;;;8.83;66.68;101872.50;5011537;28;20493;-71
2021/03/03 09:59:18;;;;;;;25.75;17.10;;;;;;;8.99;66.15;101871.44;5012268;28;20030;-71
2021/03/03 10:01:43;;;;;;;26.08;15.80;;;;;;;9.08;65.34;101868.13;5003997;28;20054;-71
2021/03/03 10:04:09;;;;;;;22.30;15.13;;;;;;;8.99;66.27;101863.53;5010639;28;20061;-70
2021/03/03 10:06:34;;;;;;;23.98;15.23;;;;;;;9.21;65.69;101858.41;5010890;28;20491;-70
2021/03/03 10:09:00;;;;;;;22.20;13.10;;;;;;;9.36;65.77;101859.91;5011474;28;20486;-70
2021/03/03 10:11:25;;;;;;;23.58;13.95;;;;;;;9.48;65.99;101854.72;5011454;28;20117;-70
2021/03/03 10:13:50;;;;;;;27.70;16.60;;;;;;;9.77;64.66;101847.28;5010768;28;20045;-70
2021/03/03 10:16:19;;;;;;;19.48;12.85;;;;;;;9.64;65.26;101847.34;5010604;28;20513;-70
2021/03/03 10:19:03;;;;;;;22.58;13.82;;;;;;;9.77;64.18;101842.00;5003614;28;20214;-70
2021/03/03 10:21:28;;;;;;;20.08;13.18;;;;;;;9.61;65.40;101859.94;5011554;28;20030;-70
2021/03/03 10:23:54;;;;;;;27.83;14.63;;;;;;;9.63;65.80;101855.38;5011402;28;20037;-70
2021/03/03 10:26:39;;;;;;;21.73;13.82;;;;;;;9.91;64.71;101868.22;5010620;28;20029;-70
2021/03/03 10:29:05;;;;;;;21.58;14.15;;;;;;;10.30;65.18;101868.03;5010826;28;20046;-70
2021/03/03 10:31:30;;;;;;;25.30;14.88;;;;;;;10.18;62.55;101867.97;5011210;28;20628;-70
2021/03/03 10:34:08;;;;;;;23.83;14.10;;;;;;;10.50;64.17;101863.84;5010866;28;20034;-70
2021/03/03 10:36:40;;;;;;;25.55;15.52;;;;;;;10.92;61.60;101861.47;4995017;28;20042;-70
2021/03/03 10:39:07;;;;;;;33.17;18.83;;;;;;;11.22;60.57;101866.94;5007737;28;20065;-70
2021/03/03 10:41:33;;;;;;;25.83;16.67;;;;;;;10.94;60.60;101862.16;5010791;28;20124;-70
2021/03/03 10:43:59;;;;;;;26.33;17.13;;;;;;;11.12;60.66;101865.16;5010559;28;20081;-70
2021/03/03 10:46:26;;;;;;;28.60;18.15;;;;;;;11.33;60.07;101854.66;5013272;28;20053;-70
2021/03/03 10:48:52;;;;;;;30.02;17.00;;;;;;;10.97;61.47;101856.66;5010925;28;20055;-70
2021/03/03 10:51:20;;;;;;;28.83;17.27;;;;;;;11.37;59.97;101858.72;5011223;28;20324;-70
2021/03/03 10:53:54;;;;;;;25.05;16.55;;;;;;;11.25;60.40;101848.19;5010738;28;20506;-70
2021/03/03 10:56:29;;;;;;;29.67;18.73;;;;;;;11.55;59.09;101848.47;5008788;28;20070;-70
2021/03/03 10:59:25;;;;;;;30.98;18.73;;;;;;;11.61;58.89;101859.41;5009915;28;20030;-69
2021/03/03 11:01:56;;;;;;;27.67;16.77;;;;;;;11.69;59.10;101854.28;5001865;28;20048;-69
2021/03/03 11:04:36;;;;;;;31.00;18.80;;;;;;;11.96;57.84;101849.50;5007809;28;20755;-69
2021/03/03 11:07:02;;;;;;;31.65;19.67;;;;;;;12.01;57.28;101848.19;5008833;28;20044;-69
2021/03/03 11:09:28;;;;;;;31.35;19.13;;;;;;;12.06;57.04;101845.97;5010041;28;20042;-69
2021/03/03 11:11:57;;;;;;;26.45;16.73;;;;;;;12.07;57.24;101841.50;5009174;28;20117;-69
2021/03/03 11:14:23;;;;;;;29.75;18.85;;;;;;;11.95;57.72;101850.50;5007379;28;20517;-70
2021/03/03 11:16:49;;;;;;;27.52;17.20;;;;;;;11.99;57.12;101847.47;5009414;28;20495;-69
2021/03/03 11:19:16;;;;;;;28.70;19.70;;;;;;;12.18;56.29;101838.81;5010320;28;20483;-69
2021/03/03 11:21:41;;;;;;;31.60;20.10;;;;;;;12.31;55.80;101834.13;5009795;28;20030;-69
2021/03/03 11:24:07;;;;;;;24.10;16.85;;;;;;;12.07;56.56;101825.59;5009215;28;20088;-70
2021/03/03 11:26:36;;;;;;;27.33;18.25;;;;;;;12.35;55.89;101829.41;5009540;28;20125;-70